Time;durP1;ratioP1;P1;durP2;ratioP2;P2;SDS_P1;SDS_P2;PMS_P1;PMS_P2;Temp;Humidity;BMP_temperature;BMP_pressure;BME280_temperature;BME280_humidity;BME280_pressure;Samples;Min_cycle;Max_cycle;Signal;HPM_P1;HPM_P2
2022/03/11 00:00:44;;;;;;;4.60;2.70;;;9.00;91.30;;;;;;5134287;27;20032;-80
2022/03/11 00:03:13;;;;;;;4.78;2.95;;;9.00;91.30;;;;;;5143160;27;20075;-81
2022/03/11 00:05:42;;;;;;;4.47;2.47;;;8.90;91.40;;;;;;5129734;27;20033;-80
2022/03/11 00:08:08;;;;;;;4.15;2.88;;;8.90;91.20;;;;;;5130944;28;20219;-80
2022/03/11 00:10:34;;;;;;;5.30;2.90;;;8.90;91.10;;;;;;5128908;28;20608;-80
2022/03/11 00:12:59;;;;;;;4.93;2.90;;;8.90;91.20;;;;;;5130785;28;20046;-80
2022/03/11 00:15:25;;;;;;;5.38;3.20;;;8.90;91.00;;;;;;5131085;27;20054;-81
2022/03/11 00:17:51;;;;;;;3.97;3.20;;;8.90;91.50;;;;;;5134938;27;20101;-81
2022/03/11 00:20:21;;;;;;;5.25;3.42;;;8.90;91.10;;;;;;5133776;27;20024;-81
2022/03/11 00:22:47;;;;;;;4.93;3.75;;;8.90;91.30;;;;;;5112183;28;20037;-81
2022/03/11 00:25:13;;;;;;;4.57;3.72;;;8.90;91.30;;;;;;5130554;27;20495;-80
2022/03/11 00:27:39;;;;;;;6.07;3.75;;;8.90;91.50;;;;;;5130654;27;20054;-80
2022/03/11 00:30:05;;;;;;;5.82;4.03;;;8.90;91.60;;;;;;5132492;28;20027;-81
2022/03/11 00:32:31;;;;;;;6.43;4.40;;;8.90;91.50;;;;;;5110669;28;20076;-81
2022/03/11 00:34:57;;;;;;;6.57;4.32;;;8.90;91.70;;;;;;5130953;27;20028;-81
2022/03/11 00:37:22;;;;;;;6.65;4.30;;;8.90;91.70;;;;;;5130607;28;20027;-81
2022/03/11 00:39:48;;;;;;;5.75;4.35;;;8.90;91.50;;;;;;5130326;27;20084;-80
2022/03/11 00:42:14;;;;;;;5.93;4.53;;;8.90;91.60;;;;;;5132748;27;20050;-80
2022/03/11 00:44:40;;;;;;;6.20;4.32;;;8.90;91.60;;;;;;5130419;27;20118;-80
2022/03/11 00:47:07;;;;;;;6.32;4.78;;;8.90;91.80;;;;;;5130200;27;20100;-80
2022/03/11 00:49:33;;;;;;;6.22;4.65;;;8.90;91.90;;;;;;5130473;27;20025;-80
2022/03/11 00:51:59;;;;;;;6.22;4.38;;;8.90;91.70;;;;;;5133502;27;20031;-80
2022/03/11 00:54:25;;;;;;;6.63;4.38;;;8.90;91.70;;;;;;5134868;27;20121;-81
2022/03/11 00:56:51;;;;;;;5.72;4.22;;;8.90;92.00;;;;;;5135594;27;20523;-81
2022/03/11 00:59:17;;;;;;;7.40;4.55;;;8.90;92.20;;;;;;5133544;27;20071;-80
2022/03/11 01:01:43;;;;;;;7.35;4.63;;;8.90;92.20;;;;;;5132645;27;20031;-81
2022/03/11 01:04:09;;;;;;;6.75;4.38;;;8.90;91.90;;;;;;5134121;27;20026;-80
2022/03/11 01:06:35;;;;;;;6.25;4.30;;;9.00;92.10;;;;;;5133753;27;22486;-81
2022/03/11 01:09:00;;;;;;;5.47;4.53;;;9.00;92.40;;;;;;5135761;27;20019;-81
2022/03/11 01:11:26;;;;;;;6.75;4.47;;;9.20;92.20;;;;;;5132224;27;20019;-81
2022/03/11 01:13:52;;;;;;;5.90;4.18;;;9.20;92.30;;;;;;5133322;27;20522;-80
2022/03/11 01:16:17;;;;;;;5.50;3.65;;;9.20;91.80;;;;;;5133418;27;20034;-80
2022/03/11 01:18:43;;;;;;;6.05;4.22;;;9.20;91.80;;;;;;5133972;27;20065;-81
2022/03/11 01:21:10;;;;;;;6.35;4.22;;;9.20;91.80;;;;;;5117320;27;20023;-80
2022/03/11 01:23:35;;;;;;;6.22;4.32;;;9.30;91.80;;;;;;5114807;27;20051;-81
2022/03/11 01:26:01;;;;;;;5.90;4.28;;;9.30;91.60;;;;;;5115147;27;20058;-80
2022/03/11 01:28:27;;;;;;;5.88;3.70;;;9.30;91.60;;;;;;5132935;27;20102;-80
2022/03/11 01:30:53;;;;;;;6.72;4.35;;;9.30;91.80;;;;;;5133674;27;20026;-80
2022/03/11 01:33:19;;;;;;;6.43;3.65;;;9.30;91.60;;;;;;5134873;27;20042;-80
2022/03/11 01:35:46;;;;;;;6.00;3.60;;;9.40;91.50;;;;;;5134315;27;20066;-80
2022/03/11 01:38:12;;;;;;;5.10;3.80;;;9.30;91.50;;;;;;5114532;27;20102;-81
2022/03/11 01:40:38;;;;;;;5.80;3.90;;;9.30;91.40;;;;;;5133236;27;20023;-80
2022/03/11 01:43:03;;;;;;;6.40;3.63;;;9.30;91.40;;;;;;5132656;27;20422;-80
2022/03/11 01:45:29;;;;;;;4.65;3.38;;;9.40;91.40;;;;;;5133019;27;20074;-80
2022/03/11 01:47:55;;;;;;;6.35;4.07;;;9.30;91.30;;;;;;5135156;27;20027;-80
2022/03/11 01:50:21;;;;;;;4.38;3.38;;;9.30;91.40;;;;;;5131807;27;20027;-80
2022/03/11 01:52:46;;;;;;;5.43;3.53;;;9.40;91.50;;;;;;5132861;27;20075;-80
2022/03/11 01:55:13;;;;;;;4.70;3.70;;;9.40;91.50;;;;;;5132845;27;20015;-80
2022/03/11 01:57:39;;;;;;;4.05;3.17;;;9.50;91.60;;;;;;5132672;27;20042;-80
2022/03/11 02:00:07;;;;;;;4.82;3.35;;;9.50;91.70;;;;;;5134848;27;20407;-80
2022/03/11 02:02:33;;;;;;;4.22;2.97;;;9.50;91.60;;;;;;5114016;27;20051;-81
2022/03/11 02:05:00;;;;;;;3.75;3.05;;;9.50;91.40;;;;;;5132557;27;20068;-80
2022/03/11 02:07:26;;;;;;;4.25;3.35;;;9.60;91.50;;;;;;5132596;27;20015;-80
2022/03/11 02:09:53;;;;;;;5.10;3.25;;;9.60;91.40;;;;;;5114289;27;20488;-80
2022/03/11 02:12:38;;;;;;;5.25;3.50;;;9.60;91.50;;;;;;5133689;27;20023;-80
2022/03/11 02:15:05;;;;;;;5.32;3.58;;;9.70;91.30;;;;;;5133862;27;20023;-81
2022/03/11 02:17:30;;;;;;;5.00;3.72;;;9.70;91.40;;;;;;5132330;27;20011;-81
2022/03/11 02:19:56;;;;;;;4.78;3.10;;;9.70;91.40;;;;;;5131697;27;20100;-80
2022/03/11 02:22:24;;;;;;;5.15;3.35;;;9.70;91.30;;;;;;5131447;27;20492;-80
2022/03/11 02:24:53;;;;;;;5.40;3.70;;;9.70;91.40;;;;;;5131155;27;20019;-80
2022/03/11 02:27:20;;;;;;;5.93;3.85;;;9.70;91.50;;;;;;5132235;27;20027;-81
2022/03/11 02:29:45;;;;;;;5.60;3.47;;;9.70;91.50;;;;;;5133269;27;20032;-81
2022/03/11 02:32:11;;;;;;;5.45;3.20;;;9.70;91.40;;;;;;5132090;27;20021;-80
2022/03/11 02:34:38;;;;;;;4.40;3.20;;;9.70;91.70;;;;;;5135039;27;20019;-81
2022/03/11 02:37:04;;;;;;;5.55;3.70;;;9.70;91.30;;;;;;5132377;27;20019;-80
2022/03/11 02:39:30;;;;;;;5.07;3.47;;;9.70;91.40;;;;;;5131437;27;20031;-80
2022/03/11 02:41:57;;;;;;;4.40;3.53;;;9.70;91.30;;;;;;5134171;27;20083;-80
2022/03/11 02:44:23;;;;;;;4.25;3.40;;;9.70;91.40;;;;;;5131757;27;20015;-80
2022/03/11 02:46:49;;;;;;;4.80;3.42;;;9.70;91.70;;;;;;5131903;27;20035;-80
2022/03/11 02:49:15;;;;;;;6.25;3.80;;;9.70;91.50;;;;;;5131726;27;20019;-80
2022/03/11 02:51:40;;;;;;;6.88;3.95;;;9.70;91.60;;;;;;5115539;27;20026;-80
2022/03/11 02:54:06;;;;;;;5.03;3.70;;;9.70;91.50;;;;;;5133447;27;20019;-80
2022/03/11 02:56:32;;;;;;;5.40;3.63;;;9.70;91.70;;;;;;5131577;27;20499;-80
2022/03/11 02:58:58;;;;;;;5.38;3.45;;;9.70;91.60;;;;;;5131534;27;20399;-80
2022/03/11 03:01:23;;;;;;;5.63;3.88;;;9.70;91.60;;;;;;5131770;27;20079;-80
2022/03/11 03:03:49;;;;;;;4.70;3.35;;;9.70;91.70;;;;;;5131593;27;20484;-80
2022/03/11 03:06:15;;;;;;;6.78;3.80;;;9.70;91.70;;;;;;5113807;27;20035;-81
2022/03/11 03:08:40;;;;;;;5.47;3.55;;;9.70;91.70;;;;;;5129711;27;20528;-80
2022/03/11 03:11:06;;;;;;;6.07;3.92;;;9.70;91.80;;;;;;5130746;27;20019;-80
2022/03/11 03:13:32;;;;;;;5.78;3.78;;;9.70;91.70;;;;;;5130073;27;20112;-80
2022/03/11 03:15:57;;;;;;;6.07;4.22;;;9.70;91.70;;;;;;5112847;27;20043;-80
2022/03/11 03:18:23;;;;;;;5.15;3.55;;;9.70;91.70;;;;;;5131421;27;20488;-81
2022/03/11 03:20:49;;;;;;;5.05;3.38;;;9.70;91.60;;;;;;5132090;27;20035;-81
2022/03/11 03:23:14;;;;;;;6.95;3.97;;;9.70;91.60;;;;;;5130365;27;20022;-80
2022/03/11 03:25:41;;;;;;;5.45;3.47;;;9.70;91.60;;;;;;5130510;27;20459;-81
2022/03/11 03:28:07;;;;;;;4.68;3.83;;;9.70;91.60;;;;;;5130687;27;20030;-81
2022/03/11 03:30:33;;;;;;;4.65;3.70;;;9.80;91.80;;;;;;5130870;27;20115;-81
2022/03/11 03:32:58;;;;;;;5.53;4.00;;;9.80;91.80;;;;;;5132757;27;20041;-81
2022/03/11 03:35:24;;;;;;;5.43;3.60;;;9.70;91.90;;;;;;5130314;27;20451;-82
2022/03/11 03:37:50;;;;;;;6.03;3.80;;;9.80;91.90;;;;;;5129738;27;20027;-82
2022/03/11 03:40:15;;;;;;;6.07;4.10;;;9.80;91.80;;;;;;5130482;27;20023;-82
2022/03/11 03:42:46;;;;;;;5.90;4.10;;;9.80;91.80;;;;;;5114254;28;20070;-82
2022/03/11 03:45:11;;;;;;;5.45;3.72;;;9.80;92.00;;;;;;5128593;27;20043;-80
2022/03/11 03:47:37;;;;;;;4.93;3.58;;;9.80;92.00;;;;;;5130026;27;20031;-80
2022/03/11 03:50:03;;;;;;;4.63;3.53;;;9.90;92.20;;;;;;5130264;27;20065;-80
2022/03/11 03:52:29;;;;;;;6.82;4.35;;;9.80;92.10;;;;;;5129590;27;20031;-80
2022/03/11 03:54:55;;;;;;;5.55;4.30;;;9.90;91.90;;;;;;5130247;27;20030;-81
2022/03/11 03:57:21;;;;;;;5.50;3.97;;;9.90;92.20;;;;;;5131392;27;20027;-81
2022/03/11 03:59:47;;;;;;;5.35;3.60;;;9.90;92.10;;;;;;5131596;27;20015;-81
2022/03/11 04:02:13;;;;;;;6.95;4.03;;;9.90;92.10;;;;;;5129940;27;20023;-81
2022/03/11 04:04:38;;;;;;;5.72;4.15;;;9.90;92.10;;;;;;5130209;28;20487;-81
2022/03/11 04:07:04;;;;;;;6.30;4.30;;;9.90;92.10;;;;;;5129735;27;20043;-80
2022/03/11 04:09:30;;;;;;;6.68;3.97;;;9.90;92.20;;;;;;5130025;27;20022;-80
2022/03/11 04:11:55;;;;;;;5.72;4.53;;;9.90;92.10;;;;;;5132286;27;20028;-81
2022/03/11 04:14:21;;;;;;;6.72;4.75;;;9.90;92.10;;;;;;5111724;27;20022;-80
2022/03/11 04:16:46;;;;;;;6.70;5.07;;;9.90;91.90;;;;;;5130321;27;20028;-80
2022/03/11 04:19:12;;;;;;;7.05;4.57;;;9.90;92.10;;;;;;5130041;28;20514;-81
2022/03/11 04:21:38;;;;;;;6.03;4.63;;;9.90;91.90;;;;;;5129866;27;20491;-80
2022/03/11 04:24:05;;;;;;;6.55;4.72;;;9.90;92.00;;;;;;5113595;28;20027;-80
2022/03/11 04:26:31;;;;;;;5.88;4.53;;;9.90;92.10;;;;;;5132557;27;20035;-80
2022/03/11 04:28:57;;;;;;;5.55;4.30;;;9.90;92.20;;;;;;5133952;27;20388;-80
2022/03/11 04:31:23;;;;;;;7.00;4.75;;;9.90;92.20;;;;;;5133931;27;20035;-81
2022/03/11 04:33:48;;;;;;;7.70;5.13;;;9.90;92.30;;;;;;5134501;27;20110;-80
2022/03/11 04:36:15;;;;;;;5.55;4.35;;;9.90;92.20;;;;;;5135119;27;20483;-80
2022/03/11 04:38:40;;;;;;;5.60;4.88;;;9.90;92.10;;;;;;5134507;27;20036;-82
2022/03/11 04:41:06;;;;;;;7.00;5.07;;;9.90;92.20;;;;;;5115289;27;20031;-81
2022/03/11 04:43:32;;;;;;;8.10;5.15;;;9.90;92.20;;;;;;5133853;27;20149;-81
2022/03/11 04:45:58;;;;;;;7.05;5.03;;;9.90;92.30;;;;;;5133365;27;20050;-80
2022/03/11 04:48:23;;;;;;;5.88;4.82;;;9.90;92.30;;;;;;5134358;27;20118;-80
2022/03/11 04:50:49;;;;;;;8.18;4.70;;;9.90;92.30;;;;;;5135094;27;20019;-80
2022/03/11 04:53:14;;;;;;;6.38;4.50;;;9.90;92.40;;;;;;5133393;27;20464;-81
2022/03/11 04:55:40;;;;;;;6.82;4.85;;;9.90;92.40;;;;;;5115177;27;20106;-79
2022/03/11 04:58:05;;;;;;;8.77;5.13;;;10.00;92.50;;;;;;5133726;27;20023;-79
2022/03/11 05:00:31;;;;;;;6.10;4.50;;;10.00;92.50;;;;;;5133520;27;20484;-80
2022/03/11 05:02:58;;;;;;;6.40;5.07;;;10.00;92.30;;;;;;5135480;27;20031;-80
2022/03/11 05:05:24;;;;;;;7.38;4.70;;;10.00;92.20;;;;;;5131761;27;20076;-80
2022/03/11 05:07:50;;;;;;;6.35;4.90;;;10.10;92.50;;;;;;5114331;27;20502;-80
2022/03/11 05:10:16;;;;;;;6.47;4.50;;;10.10;92.30;;;;;;5133309;27;20015;-80
2022/03/11 05:12:42;;;;;;;5.30;4.50;;;10.10;92.40;;;;;;5117048;27;20023;-80
2022/03/11 05:15:09;;;;;;;7.00;4.80;;;10.10;92.50;;;;;;5135444;27;20020;-81
2022/03/11 05:17:35;;;;;;;5.55;3.80;;;10.10;92.40;;;;;;5133097;27;20491;-81
2022/03/11 05:20:03;;;;;;;8.10;4.63;;;10.10;92.40;;;;;;5132568;27;20038;-81
2022/03/11 05:22:29;;;;;;;8.25;4.40;;;10.10;92.50;;;;;;5132821;27;20039;-81
2022/03/11 05:24:55;;;;;;;6.90;4.40;;;10.10;92.30;;;;;;5133116;27;20065;-81
2022/03/11 05:27:21;;;;;;;6.32;4.72;;;10.10;92.30;;;;;;5134181;27;20408;-80
2022/03/11 05:29:46;;;;;;;6.05;4.57;;;10.10;92.50;;;;;;5115366;27;20537;-80
2022/03/11 05:32:14;;;;;;;5.70;4.00;;;10.10;92.30;;;;;;5132634;27;20026;-80
2022/03/11 05:34:42;;;;;;;6.85;4.32;;;10.10;92.30;;;;;;5133055;27;20016;-81
2022/03/11 05:37:08;;;;;;;6.78;4.80;;;10.10;92.40;;;;;;5131728;27;20131;-80
2022/03/11 05:39:33;;;;;;;7.00;4.75;;;10.10;92.30;;;;;;5132723;27;20057;-80
2022/03/11 05:41:59;;;;;;;5.38;4.20;;;10.10;92.60;;;;;;5116500;27;20019;-81
2022/03/11 05:44:25;;;;;;;6.47;4.20;;;10.10;92.40;;;;;;5130812;27;20027;-81
2022/03/11 05:46:52;;;;;;;6.70;4.40;;;10.10;92.30;;;;;;5132477;27;20031;-81
2022/03/11 05:49:19;;;;;;;5.47;4.40;;;10.10;92.30;;;;;;5132487;27;20019;-81
2022/03/11 05:51:45;;;;;;;5.93;4.47;;;10.00;92.50;;;;;;5132486;27;20031;-81
2022/03/11 05:54:10;;;;;;;6.30;4.53;;;10.00;92.40;;;;;;5134620;27;20022;-80
2022/03/11 05:56:37;;;;;;;6.32;4.28;;;10.00;92.40;;;;;;5132124;27;20027;-80
2022/03/11 05:59:04;;;;;;;5.95;4.80;;;10.00;92.60;;;;;;5113603;27;20023;-81
2022/03/11 06:01:31;;;;;;;5.45;4.25;;;10.00;92.50;;;;;;5132098;27;20030;-79
2022/03/11 06:03:56;;;;;;;5.55;4.13;;;10.00;92.60;;;;;;5131933;27;20036;-85
2022/03/11 06:06:22;;;;;;;6.88;4.60;;;10.00;92.60;;;;;;5133706;27;20139;-85
2022/03/11 06:08:48;;;;;;;6.05;3.97;;;10.00;92.70;;;;;;5133791;27;20382;-87
2022/03/11 06:11:14;;;;;;;5.70;4.25;;;10.10;92.80;;;;;;5114001;27;20042;-90
2022/03/11 06:13:39;;;;;;;5.18;3.90;;;10.10;92.60;;;;;;5132400;27;20483;-89
2022/03/11 06:16:06;;;;;;;8.48;4.43;;;10.10;92.70;;;;;;5133395;27;20110;-91
2022/03/11 06:18:31;;;;;;;5.25;4.00;;;10.10;92.70;;;;;;5133201;27;20031;-90
2022/03/11 06:20:57;;;;;;;6.60;4.15;;;10.20;92.70;;;;;;5134580;27;20034;-89
2022/03/11 06:23:23;;;;;;;5.35;4.05;;;10.20;92.70;;;;;;5133386;27;20132;-88
2022/03/11 06:25:49;;;;;;;5.32;3.90;;;10.20;92.60;;;;;;5131947;27;20114;-79
2022/03/11 06:28:15;;;;;;;7.68;3.90;;;10.20;92.60;;;;;;5131896;27;20118;-89
2022/03/11 06:30:40;;;;;;;8.30;4.72;;;10.30;92.70;;;;;;5131788;27;20030;-82
2022/03/11 06:33:06;;;;;;;5.43;3.88;;;10.30;92.50;;;;;;5133338;27;20027;-81
2022/03/11 06:35:33;;;;;;;5.63;4.00;;;10.30;92.70;;;;;;5132061;27;20563;-81
2022/03/11 06:37:58;;;;;;;5.43;3.97;;;10.30;92.70;;;;;;5131594;27;20049;-81
2022/03/11 06:40:24;;;;;;;7.30;3.90;;;10.30;92.60;;;;;;5131229;27;20428;-81
2022/03/11 06:42:50;;;;;;;6.80;4.00;;;10.30;92.70;;;;;;5113278;27;20027;-81
2022/03/11 06:45:18;;;;;;;4.25;3.70;;;10.30;92.70;;;;;;5132700;27;20036;-81
2022/03/11 06:47:46;;;;;;;5.65;3.80;;;10.40;92.80;;;;;;5129765;27;20035;-81
2022/03/11 06:50:12;;;;;;;4.47;3.58;;;10.40;92.90;;;;;;5130812;27;20548;-81
2022/03/11 06:52:38;;;;;;;6.22;3.90;;;10.40;92.80;;;;;;5112547;27;20031;-81
2022/03/11 06:55:05;;;;;;;4.97;4.00;;;10.40;92.80;;;;;;5131219;27;20072;-81
2022/03/11 06:57:31;;;;;;;5.80;3.90;;;10.40;92.80;;;;;;5112692;27;20027;-81
2022/03/11 06:59:57;;;;;;;4.65;3.60;;;10.40;92.90;;;;;;5133183;27;20019;-81
2022/03/11 07:02:22;;;;;;;5.60;3.90;;;10.50;92.90;;;;;;5129082;27;20510;-81
2022/03/11 07:04:48;;;;;;;6.35;4.25;;;10.50;92.80;;;;;;5112598;27;20499;-81
2022/03/11 07:07:14;;;;;;;4.68;3.60;;;10.50;92.70;;;;;;5130895;27;20027;-81
2022/03/11 07:09:39;;;;;;;6.57;3.20;;;10.50;92.90;;;;;;5130825;27;20538;-82
2022/03/11 07:12:06;;;;;;;6.20;3.80;;;10.50;92.70;;;;;;5133440;27;20553;-81
2022/03/11 07:14:36;;;;;;;6.22;3.50;;;10.60;92.90;;;;;;5112580;27;20425;-81
2022/03/11 07:17:06;;;;;;;5.30;3.83;;;10.60;92.90;;;;;;5130398;27;20027;-82
2022/03/11 07:19:33;;;;;;;4.75;3.50;;;10.70;92.70;;;;;;5131141;27;20349;-81
2022/03/11 07:22:01;;;;;;;5.07;3.20;;;10.70;92.80;;;;;;5130614;27;20051;-81
2022/03/11 07:24:27;;;;;;;4.70;3.38;;;10.70;92.90;;;;;;5131871;27;20068;-81
2022/03/11 07:26:53;;;;;;;5.05;3.80;;;10.70;92.80;;;;;;5130679;27;20042;-81
2022/03/11 07:29:19;;;;;;;6.00;3.67;;;10.70;92.60;;;;;;5130148;27;20015;-81
2022/03/11 07:31:45;;;;;;;4.65;3.60;;;10.70;92.70;;;;;;5130131;27;20058;-80
2022/03/11 07:34:11;;;;;;;4.70;3.42;;;10.70;92.60;;;;;;5131155;27;20020;-80
2022/03/11 07:36:37;;;;;;;6.70;3.78;;;10.80;92.80;;;;;;5129473;27;20035;-81
2022/03/11 07:39:07;;;;;;;4.90;3.20;;;10.80;92.70;;;;;;5136369;27;20014;-82
2022/03/11 07:41:34;;;;;;;4.70;3.17;;;10.80;92.70;;;;;;5136124;27;20039;-81
2022/03/11 07:44:00;;;;;;;4.43;3.38;;;10.80;92.60;;;;;;5126927;27;20023;-80
2022/03/11 07:46:27;;;;;;;4.88;3.40;;;10.80;92.60;;;;;;5135792;27;20047;-80
2022/03/11 07:48:54;;;;;;;5.55;3.17;;;10.80;92.90;;;;;;5145916;27;20046;-81
2022/03/11 07:51:20;;;;;;;5.95;3.47;;;10.90;92.80;;;;;;5137203;27;20027;-82
2022/03/11 07:53:46;;;;;;;7.13;4.03;;;10.90;92.80;;;;;;5140860;27;20075;-82
2022/03/11 07:56:14;;;;;;;7.10;3.95;;;10.90;92.80;;;;;;5135168;27;20395;-81
2022/03/11 07:58:41;;;;;;;4.28;3.20;;;10.90;92.80;;;;;;5136280;27;20160;-81
2022/03/11 08:01:08;;;;;;;5.28;3.75;;;10.90;92.80;;;;;;5132471;27;20034;-81
2022/03/11 08:03:34;;;;;;;7.15;4.10;;;10.90;92.80;;;;;;5142717;27;20019;-81
2022/03/11 08:06:00;;;;;;;4.78;3.83;;;11.00;92.80;;;;;;5151603;27;20031;-81
2022/03/11 08:08:27;;;;;;;4.75;3.67;;;11.00;92.80;;;;;;5121865;27;20399;-82
2022/03/11 08:10:54;;;;;;;6.15;3.40;;;11.00;92.90;;;;;;5145404;27;20491;-80
2022/03/11 08:13:20;;;;;;;5.40;3.25;;;11.00;92.80;;;;;;5149695;27;20026;-80
2022/03/11 08:15:46;;;;;;;6.65;3.47;;;11.00;92.90;;;;;;5142837;27;20559;-80
2022/03/11 08:18:12;;;;;;;6.32;3.80;;;11.00;92.90;;;;;;5153300;27;20025;-80
2022/03/11 08:20:38;;;;;;;5.43;3.45;;;11.00;92.90;;;;;;5138975;27;20102;-82
2022/03/11 08:23:04;;;;;;;7.63;4.10;;;11.00;93.40;;;;;;5146286;27;20118;-81
2022/03/11 08:25:30;;;;;;;6.47;3.47;;;11.00;93.00;;;;;;5148268;27;20400;-81
2022/03/11 08:27:57;;;;;;;4.15;3.30;;;11.00;93.10;;;;;;5140956;27;20031;-80
2022/03/11 08:30:24;;;;;;;4.85;3.05;;;11.00;93.10;;;;;;5142347;27;20015;-82
2022/03/11 08:32:51;;;;;;;5.53;3.88;;;11.10;93.20;;;;;;5142090;27;20019;-81
2022/03/11 08:35:17;;;;;;;5.57;3.30;;;11.10;93.10;;;;;;5146393;27;20118;-82
2022/03/11 08:37:43;;;;;;;5.07;3.45;;;11.00;93.10;;;;;;5146930;27;20023;-81
2022/03/11 08:40:10;;;;;;;6.60;3.45;;;11.10;93.50;;;;;;5143293;27;20091;-80
2022/03/11 08:42:37;;;;;;;6.97;3.67;;;11.00;93.20;;;;;;5151517;27;20027;-81
2022/03/11 08:45:04;;;;;;;5.95;3.67;;;11.10;93.40;;;;;;5144370;27;20030;-81
2022/03/11 08:47:30;;;;;;;7.32;4.07;;;11.10;93.50;;;;;;5145755;27;20035;-81
2022/03/11 08:49:57;;;;;;;6.63;3.83;;;11.20;93.30;;;;;;5128240;27;20171;-81
2022/03/11 08:52:25;;;;;;;5.53;3.50;;;11.20;93.20;;;;;;5140289;27;20091;-80
2022/03/11 08:54:52;;;;;;;6.07;3.78;;;11.20;93.20;;;;;;5137415;27;20506;-81
2022/03/11 08:57:18;;;;;;;8.60;4.75;;;11.30;93.00;;;;;;5142601;27;20026;-80
2022/03/11 08:59:44;;;;;;;5.75;3.72;;;11.30;93.00;;;;;;5150337;27;20031;-81
2022/03/11 09:02:09;;;;;;;5.22;3.55;;;11.30;93.00;;;;;;5142548;27;20046;-80
2022/03/11 09:04:36;;;;;;;7.03;3.88;;;11.30;93.00;;;;;;5117541;27;20033;-80
2022/03/11 09:07:02;;;;;;;5.95;3.08;;;11.40;93.00;;;;;;5131612;27;20091;-81
2022/03/11 09:09:29;;;;;;;5.88;3.58;;;11.30;93.10;;;;;;5147259;27;20068;-83
2022/03/11 09:11:54;;;;;;;4.45;2.90;;;11.30;93.20;;;;;;5132968;27;20046;-82
2022/03/11 09:14:20;;;;;;;5.72;3.20;;;11.30;93.00;;;;;;5133359;27;20566;-83
2022/03/11 09:16:46;;;;;;;6.57;3.22;;;11.30;93.10;;;;;;5133251;27;20042;-82
2022/03/11 09:19:12;;;;;;;6.38;3.63;;;11.30;93.30;;;;;;5134651;27;20094;-82
2022/03/11 09:21:38;;;;;;;4.75;3.40;;;11.20;93.10;;;;;;5133928;27;20019;-82
2022/03/11 09:24:04;;;;;;;5.60;3.30;;;11.20;93.30;;;;;;5135356;27;20030;-82
2022/03/11 09:26:29;;;;;;;6.13;3.30;;;11.20;93.30;;;;;;5114408;27;20042;-82
2022/03/11 09:28:55;;;;;;;4.72;3.28;;;11.20;93.70;;;;;;5133149;27;20114;-82
2022/03/11 09:31:21;;;;;;;5.75;3.00;;;11.20;93.40;;;;;;5114394;27;20471;-82
2022/03/11 09:33:47;;;;;;;5.95;3.33;;;11.30;93.70;;;;;;5133559;27;20016;-82
2022/03/11 09:36:12;;;;;;;5.15;2.63;;;11.30;93.90;;;;;;5135681;27;20499;-82
2022/03/11 09:38:39;;;;;;;5.38;3.03;;;11.40;94.00;;;;;;5131376;27;20042;-82
2022/03/11 09:41:05;;;;;;;5.05;3.03;;;11.60;93.80;;;;;;5137853;27;20022;-82
2022/03/11 09:43:32;;;;;;;3.70;2.63;;;11.60;93.50;;;;;;5124598;27;20034;-82
2022/03/11 09:45:58;;;;;;;4.55;2.90;;;11.60;93.40;;;;;;5139672;27;20410;-82
2022/03/11 09:48:25;;;;;;;4.00;2.72;;;11.60;93.30;;;;;;5136698;27;20019;-82
2022/03/11 09:50:51;;;;;;;4.53;3.00;;;11.50;93.10;;;;;;5134805;27;20379;-82
2022/03/11 09:53:17;;;;;;;4.20;2.38;;;11.50;93.10;;;;;;5134027;27;20498;-83
2022/03/11 09:55:44;;;;;;;4.07;2.70;;;11.40;93.30;;;;;;5132879;27;20031;-83
2022/03/11 09:58:10;;;;;;;5.50;2.38;;;11.40;93.50;;;;;;5132993;27;20437;-82
2022/03/11 10:00:37;;;;;;;3.83;2.17;;;11.40;93.50;;;;;;5133114;27;20055;-82
2022/03/11 10:03:03;;;;;;;4.10;2.25;;;11.50;94.00;;;;;;5135098;27;20058;-83
2022/03/11 10:05:52;;;;;;;3.20;2.08;;;11.60;94.00;;;;;;5132751;27;20046;-82
2022/03/11 10:08:32;;;;;;;4.90;2.13;;;11.60;93.60;;;;;;5129708;27;20015;-83
2022/03/11 10:11:18;;;;;;;2.90;2.00;;;11.70;93.80;;;;;;5132449;27;20076;-82
2022/03/11 10:13:43;;;;;;;2.80;1.75;;;11.80;93.70;;;;;;5114004;27;20466;-82
2022/03/11 10:16:36;;;;;;;2.63;1.77;;;11.90;93.80;;;;;;5131271;27;20091;-82
2022/03/11 10:19:03;;;;;;;2.80;1.33;;;12.00;93.20;;;;;;5098782;27;20149;-81
2022/03/11 10:21:35;;;;;;;2.10;1.25;;;11.90;93.10;;;;;;5132548;27;20468;-83
2022/03/11 10:24:05;;;;;;;1.98;1.30;;;11.90;93.10;;;;;;5134255;27;20023;-81
2022/03/11 10:26:46;;;;;;;4.30;1.00;;;11.90;93.00;;;;;;5131983;27;20042;-82
2022/03/11 10:29:14;;;;;;;3.08;1.90;;;11.80;93.10;;;;;;5116158;27;20115;-82
2022/03/11 10:31:43;;;;;;;3.53;1.20;;;11.70;93.10;;;;;;5133930;27;20022;-82
2022/03/11 10:34:22;;;;;;;3.00;1.15;;;11.70;93.40;;;;;;5114058;27;20020;-82
2022/03/11 10:36:51;;;;;;;2.70;1.20;;;11.70;93.50;;;;;;5132415;27;20016;-81
2022/03/11 10:39:25;;;;;;;4.05;1.10;;;11.70;93.50;;;;;;5133383;27;20467;-82
2022/03/11 10:41:53;;;;;;;1.83;0.70;;;11.80;93.60;;;;;;5133638;27;20035;-82
2022/03/11 10:44:22;;;;;;;2.05;0.80;;;11.90;93.70;;;;;;5131527;27;20074;-82
2022/03/11 10:46:48;;;;;;;2.33;0.70;;;12.10;93.90;;;;;;5132136;27;20503;-82
2022/03/11 10:49:32;;;;;;;2.00;0.85;;;12.30;93.70;;;;;;5131996;27;20071;-82
2022/03/11 10:51:59;;;;;;;2.33;0.70;;;12.40;92.90;;;;;;5110429;27;20439;-82
2022/03/11 10:54:27;;;;;;;1.85;0.70;;;12.40;93.00;;;;;;5132596;27;20030;-82
2022/03/11 10:56:54;;;;;;;3.17;0.98;;;12.50;92.90;;;;;;5131144;27;20027;-82
2022/03/11 10:59:22;;;;;;;2.35;0.70;;;12.40;92.70;;;;;;5131948;27;20019;-83
2022/03/11 11:01:51;;;;;;;3.05;0.77;;;12.50;92.90;;;;;;5131745;27;20059;-82
2022/03/11 11:04:18;;;;;;;2.38;0.77;;;12.60;93.00;;;;;;5131717;27;20058;-82
2022/03/11 11:06:45;;;;;;;1.95;0.50;;;12.70;92.90;;;;;;5115455;27;20038;-82
2022/03/11 11:09:12;;;;;;;1.67;0.63;;;12.90;92.60;;;;;;5128909;27;20022;-82
2022/03/11 11:11:39;;;;;;;1.90;0.57;;;12.90;92.20;;;;;;5131614;27;20027;-81
2022/03/11 11:14:07;;;;;;;3.05;0.60;;;12.90;91.70;;;;;;5131504;27;20041;-81
2022/03/11 11:16:42;;;;;;;1.00;0.40;;;12.70;91.60;;;;;;5131345;27;20023;-81
2022/03/11 11:19:13;;;;;;;3.97;0.70;;;12.50;91.20;;;;;;5113161;27;20036;-83
2022/03/11 11:21:44;;;;;;;3.38;0.82;;;12.40;91.40;;;;;;5130850;27;20051;-83
2022/03/11 11:24:21;;;;;;;3.50;0.50;;;12.30;91.90;;;;;;5133416;27;20023;-81
2022/03/11 11:26:49;;;;;;;2.00;0.70;;;12.30;92.00;;;;;;5132213;27;20035;-82
2022/03/11 11:29:27;;;;;;;3.40;0.90;;;12.30;92.20;;;;;;5131221;27;20539;-82
2022/03/11 11:31:54;;;;;;;3.17;0.77;;;12.40;92.10;;;;;;5134220;27;20027;-83
2022/03/11 11:34:27;;;;;;;2.55;0.70;;;12.60;92.70;;;;;;5113388;27;20050;-85
2022/03/11 11:36:53;;;;;;;1.55;0.68;;;12.80;92.70;;;;;;5131477;27;20023;-86
2022/03/11 11:39:19;;;;;;;4.63;0.98;;;13.00;92.10;;;;;;5133465;27;20087;-86
2022/03/11 11:41:53;;;;;;;3.83;0.68;;;13.10;91.20;;;;;;5134087;27;20039;-83
2022/03/11 11:44:19;;;;;;;2.95;0.60;;;13.00;91.40;;;;;;5113915;27;20053;-89
2022/03/11 11:47:06;;;;;;;6.47;0.90;;;12.90;91.10;;;;;;5132529;27;20109;-85
2022/03/11 11:50:13;;;;;;;5.53;0.90;;;12.90;91.90;;;;;;5113513;28;20400;-87
2022/03/11 11:52:38;;;;;;;4.95;0.80;;;13.10;92.00;;;;;;5122309;27;20506;-87
2022/03/11 11:55:17;;;;;;;4.70;0.93;;;13.20;91.30;;;;;;5131879;27;20015;-86
2022/03/11 11:57:46;;;;;;;2.45;0.80;;;13.20;90.80;;;;;;5119194;28;20032;-85
2022/03/11 12:00:26;;;;;;;4.60;0.75;;;13.30;91.10;;;;;;5126673;27;20011;-83
2022/03/11 12:02:52;;;;;;;4.43;0.98;;;13.40;90.80;;;;;;5131708;27;20035;-85
2022/03/11 12:05:44;;;;;;;5.25;0.77;;;13.40;90.10;;;;;;5130545;28;20019;-89
2022/03/11 12:08:39;;;;;;;3.30;0.68;;;13.40;90.50;;;;;;5132672;27;20027;-88
2022/03/11 12:11:06;;;;;;;3.60;0.75;;;13.20;90.30;;;;;;5131725;27;20019;-82
2022/03/11 12:13:36;;;;;;;4.30;0.82;;;13.10;90.30;;;;;;5129133;27;20020;-87
2022/03/11 12:16:18;;;;;;;3.53;0.70;;;13.20;90.70;;;;;;5131102;27;20030;-85
2022/03/11 12:18:45;;;;;;;5.70;0.80;;;13.20;90.80;;;;;;5129740;28;20102;-87
2022/03/11 12:21:24;;;;;;;2.35;0.55;;;13.40;91.00;;;;;;5127964;27;20066;-85
2022/03/11 12:23:50;;;;;;;5.53;0.68;;;13.80;91.50;;;;;;5113436;28;20061;-86
2022/03/11 12:26:16;;;;;;;2.85;0.80;;;14.10;90.60;;;;;;5130496;27;20170;-85
2022/03/11 12:28:44;;;;;;;4.82;1.25;;;14.20;90.00;;;;;;5130761;27;20076;-85
2022/03/11 12:31:23;;;;;;;3.53;0.70;;;14.20;87.50;;;;;;5130579;27;20400;-86
2022/03/11 12:33:51;;;;;;;3.70;0.57;;;14.10;87.10;;;;;;5113902;28;20293;-86
2022/03/11 12:36:25;;;;;;;5.65;1.10;;;14.00;87.30;;;;;;5128641;27;20054;-85
2022/03/11 12:38:52;;;;;;;6.95;1.33;;;13.80;89.70;;;;;;5132285;27;20483;-82
2022/03/11 12:41:25;;;;;;;5.75;1.30;;;13.80;88.00;;;;;;5130546;28;20030;-84
2022/03/11 12:43:51;;;;;;;8.65;1.50;;;13.90;88.70;;;;;;5130645;27;20025;-85
2022/03/11 12:46:16;;;;;;;7.70;1.17;;;14.00;88.90;;;;;;5130557;27;20046;-86
2022/03/11 12:48:45;;;;;;;3.10;0.93;;;14.10;87.90;;;;;;5134335;27;20024;-86
2022/03/11 12:51:18;;;;;;;7.32;1.13;;;14.20;87.30;;;;;;5132645;27;20544;-86